Time;durP1;ratioP1;P1;durP2;ratioP2;P2;SDS_P1;SDS_P2;PMS_P1;PMS_P2;Temp;Humidity;BMP_temperature;BMP_pressure;BME280_temperature;BME280_humidity;BME280_pressure;Samples;Min_cycle;Max_cycle;Signal;HPM_P1;HPM_P2
2023/11/20 00:02:04;;;;;;;5.00;1.88;;;14.70;99.90;;;;;;10095082;28;20047;-70
2023/11/20 00:06:54;;;;;;;4.22;1.38;;;14.60;99.90;;;;;;10094727;28;20107;-73
2023/11/20 00:11:45;;;;;;;6.43;1.75;;;14.60;99.90;;;;;;10095765;28;20785;-71
2023/11/20 00:16:36;;;;;;;6.18;1.65;;;14.60;99.90;;;;;;10094246;28;20048;-71
2023/11/20 00:21:26;;;;;;;4.35;0.90;;;14.60;99.90;;;;;;10091320;28;20384;-70
2023/11/20 00:26:17;;;;;;;6.78;1.30;;;14.60;99.90;;;;;;10100390;28;20483;-70
2023/11/20 00:31:18;;;;;;;3.20;1.00;;;14.50;99.90;;;;;;10095138;28;20025;-72
2023/11/20 00:36:09;;;;;;;3.75;1.00;;;14.60;99.90;;;;;;10098413;28;20554;-69
2023/11/20 00:41:00;;;;;;;4.38;1.35;;;14.60;99.90;;;;;;10102205;28;20116;-72
2023/11/20 00:45:50;;;;;;;6.65;1.10;;;14.50;99.90;;;;;;10101952;28;20100;-71
2023/11/20 00:50:41;;;;;;;7.97;1.55;;;14.50;99.90;;;;;;10111125;28;20017;-72
2023/11/20 00:55:32;;;;;;;5.40;1.15;;;14.50;99.90;;;;;;10101158;28;20103;-69
2023/11/20 01:00:22;;;;;;;7.13;1.83;;;14.50;99.90;;;;;;10099186;28;20045;-70
2023/11/20 01:05:13;;;;;;;5.90;1.20;;;14.50;99.90;;;;;;10101831;28;20025;-70
2023/11/20 01:10:05;;;;;;;3.15;1.40;;;14.50;99.90;;;;;;10101856;28;20040;-70
2023/11/20 01:14:55;;;;;;;3.45;1.33;;;14.50;99.90;;;;;;10100663;28;20040;-73
2023/11/20 01:19:46;;;;;;;5.05;1.50;;;14.50;99.90;;;;;;10100474;28;20039;-71
2023/11/20 01:24:36;;;;;;;4.32;1.35;;;14.50;99.90;;;;;;10106931;28;20024;-74
2023/11/20 01:29:28;;;;;;;3.97;1.02;;;14.40;99.90;;;;;;10082672;28;20079;-71
2023/11/20 01:34:19;;;;;;;6.47;1.65;;;14.40;99.90;;;;;;10102738;28;20059;-77
2023/11/20 01:39:09;;;;;;;2.20;0.90;;;14.40;99.90;;;;;;10100911;28;20025;-69
2023/11/20 01:44:00;;;;;;;1.73;1.10;;;14.40;99.90;;;;;;10096133;28;20029;-69
2023/11/20 01:48:52;;;;;;;4.97;1.95;;;14.40;99.90;;;;;;10106835;28;20033;-69
2023/11/20 01:53:44;;;;;;;10.95;3.33;;;14.40;99.90;;;;;;10099584;28;20115;-68
2023/11/20 01:58:35;;;;;;;5.95;1.67;;;14.30;99.90;;;;;;10099454;28;20131;-69
2023/11/20 02:03:26;;;;;;;5.80;1.70;;;14.30;99.90;;;;;;10098762;28;20430;-72
2023/11/20 02:08:17;;;;;;;2.85;1.30;;;14.30;99.90;;;;;;10080959;28;20021;-71
2023/11/20 02:13:09;;;;;;;6.43;1.35;;;14.30;99.90;;;;;;10096466;28;20482;-71
2023/11/20 02:17:59;;;;;;;3.58;1.35;;;14.30;99.90;;;;;;10098967;28;20100;-71
2023/11/20 02:22:51;;;;;;;6.63;1.70;;;14.30;99.90;;;;;;10104568;28;20144;-71
2023/11/20 02:28:09;;;;;;;3.97;1.58;;;14.30;99.90;;;;;;10097415;28;20580;-69
2023/11/20 02:33:00;;;;;;;4.07;1.40;;;14.30;99.90;;;;;;10098022;28;20041;-71
2023/11/20 02:37:51;;;;;;;3.28;1.30;;;14.30;99.90;;;;;;10097300;28;20532;-71
2023/11/20 02:42:42;;;;;;;5.65;1.52;;;14.40;99.90;;;;;;10097150;28;20132;-69
2023/11/20 02:47:34;;;;;;;1.80;1.13;;;14.40;99.90;;;;;;10104355;28;20158;-68
2023/11/20 02:52:25;;;;;;;2.33;1.20;;;14.30;99.90;;;;;;10097155;28;20025;-68
2023/11/20 02:57:16;;;;;;;4.20;1.50;;;14.30;99.90;;;;;;10096834;28;20017;-69
2023/11/20 03:02:06;;;;;;;3.42;1.10;;;14.20;99.90;;;;;;10097119;28;20055;-68
2023/11/20 03:06:57;;;;;;;4.93;1.00;;;14.20;99.90;;;;;;10093719;28;20051;-70
2023/11/20 03:11:48;;;;;;;6.50;1.33;;;14.20;99.90;;;;;;10097090;28;20119;-71
2023/11/20 03:16:38;;;;;;;5.05;1.73;;;14.20;99.90;;;;;;10095746;28;20017;-71
2023/11/20 03:21:29;;;;;;;4.10;1.15;;;14.30;99.90;;;;;;10096517;28;20071;-71
2023/11/20 03:26:24;;;;;;;3.85;0.90;;;14.20;99.90;;;;;;10101628;28;20018;-68
2023/11/20 03:31:15;;;;;;;6.97;1.02;;;14.30;99.90;;;;;;10090892;28;20060;-70
2023/11/20 03:36:06;;;;;;;6.43;1.63;;;14.20;99.90;;;;;;10085400;28;20072;-70
2023/11/20 03:40:57;;;;;;;3.58;1.17;;;14.30;99.90;;;;;;10092355;28;20045;-71
2023/11/20 03:45:47;;;;;;;7.95;1.80;;;14.30;99.90;;;;;;10077865;28;20031;-69
2023/11/20 03:50:38;;;;;;;5.00;1.10;;;14.30;99.90;;;;;;10095972;28;20543;-69
2023/11/20 03:55:29;;;;;;;4.57;1.33;;;14.20;99.90;;;;;;10095527;28;20043;-68
2023/11/20 04:00:20;;;;;;;3.97;1.45;;;14.20;99.90;;;;;;10095429;28;20483;-70
2023/11/20 04:05:10;;;;;;;5.45;1.02;;;14.20;99.90;;;;;;10095265;28;20510;-68
2023/11/20 04:10:01;;;;;;;4.70;1.48;;;14.10;99.90;;;;;;10093923;28;20057;-68
2023/11/20 04:14:52;;;;;;;5.25;1.42;;;14.20;99.90;;;;;;10094716;28;20017;-68
2023/11/20 04:19:42;;;;;;;3.65;0.93;;;14.20;99.90;;;;;;10094745;28;20036;-68
2023/11/20 04:24:33;;;;;;;3.25;0.88;;;14.20;99.90;;;;;;10094347;28;20119;-69
2023/11/20 04:29:25;;;;;;;5.38;1.60;;;14.20;99.90;;;;;;10094921;28;20028;-68
2023/11/20 04:34:16;;;;;;;5.25;1.00;;;14.20;99.90;;;;;;10091250;28;20056;-69
2023/11/20 04:39:09;;;;;;;2.78;1.15;;;14.20;99.90;;;;;;10094347;28;20063;-68
2023/11/20 04:43:59;;;;;;;5.43;1.08;;;14.20;99.90;;;;;;10094025;28;20109;-68
2023/11/20 04:48:50;;;;;;;4.13;1.10;;;14.10;99.90;;;;;;10078781;28;20025;-69
2023/11/20 04:53:43;;;;;;;6.80;1.55;;;14.10;99.90;;;;;;10094328;28;20087;-70
2023/11/20 04:58:33;;;;;;;3.60;1.50;;;14.10;99.90;;;;;;10093087;28;20037;-70
2023/11/20 05:03:24;;;;;;;2.50;0.82;;;14.10;99.90;;;;;;10093336;28;20033;-68
2023/11/20 05:08:16;;;;;;;2.92;1.33;;;14.10;99.90;;;;;;10094354;28;20035;-69
2023/11/20 05:13:07;;;;;;;4.72;1.08;;;14.00;99.90;;;;;;10090441;28;20024;-68
2023/11/20 05:17:58;;;;;;;2.67;1.05;;;14.00;99.90;;;;;;10091684;28;20024;-68
2023/11/20 05:22:52;;;;;;;5.30;1.52;;;14.00;99.90;;;;;;10104535;28;20115;-69
2023/11/20 05:27:43;;;;;;;5.07;1.42;;;14.00;99.90;;;;;;10089569;28;20112;-69
2023/11/20 05:32:33;;;;;;;4.22;0.88;;;14.00;99.90;;;;;;10096844;28;20140;-69
2023/11/20 05:37:24;;;;;;;8.80;2.13;;;14.00;99.90;;;;;;10094653;28;20091;-69
2023/11/20 05:42:15;;;;;;;4.65;0.75;;;14.00;99.90;;;;;;10095134;28;20114;-69
2023/11/20 05:47:06;;;;;;;5.93;1.52;;;14.00;99.90;;;;;;10106035;28;20559;-68
2023/11/20 05:51:57;;;;;;;5.85;1.20;;;14.10;99.90;;;;;;10103295;28;20021;-69
2023/11/20 05:56:47;;;;;;;3.60;1.50;;;14.00;99.90;;;;;;10103107;28;20027;-68
2023/11/20 06:01:38;;;;;;;6.30;1.48;;;14.00;99.90;;;;;;10099900;28;20040;-68
2023/11/20 06:06:29;;;;;;;2.33;0.88;;;14.00;99.90;;;;;;10099155;28;20021;-71
2023/11/20 06:11:21;;;;;;;3.13;1.45;;;14.00;99.90;;;;;;10098898;28;20033;-69
2023/11/20 06:16:15;;;;;;;4.20;0.98;;;14.00;99.90;;;;;;10098362;28;20025;-69
2023/11/20 06:21:06;;;;;;;9.40;2.77;;;14.00;99.90;;;;;;10099342;28;20037;-69
2023/11/20 06:25:57;;;;;;;6.15;1.48;;;14.00;99.90;;;;;;10097559;28;20112;-69
2023/11/20 06:30:47;;;;;;;3.70;0.82;;;13.90;99.90;;;;;;10097447;28;20509;-70
2023/11/20 06:35:39;;;;;;;4.28;1.48;;;13.90;99.90;;;;;;10097803;28;20049;-68
2023/11/20 06:40:30;;;;;;;5.57;1.50;;;13.90;99.90;;;;;;10083439;28;20036;-70
2023/11/20 06:45:20;;;;;;;4.32;1.25;;;13.90;99.90;;;;;;10097408;28;20021;-69
2023/11/20 06:50:12;;;;;;;2.75;1.25;;;13.90;99.90;;;;;;10098479;28;20033;-69
2023/11/20 06:55:03;;;;;;;7.15;2.22;;;13.90;99.90;;;;;;10079702;28;20122;-68
2023/11/20 06:59:53;;;;;;;3.92;0.80;;;13.90;99.90;;;;;;10080018;28;20733;-69
2023/11/20 07:04:45;;;;;;;3.63;1.20;;;13.90;99.90;;;;;;10093470;28;20605;-73
2023/11/20 07:09:35;;;;;;;2.80;1.50;;;13.90;99.90;;;;;;10096747;28;20503;-68
2023/11/20 07:14:26;;;;;;;3.33;1.00;;;13.90;99.90;;;;;;10093661;28;20040;-68
2023/11/20 07:19:17;;;;;;;3.05;1.48;;;14.00;99.90;;;;;;10095998;28;20491;-68
2023/11/20 07:24:07;;;;;;;6.15;1.13;;;14.00;99.90;;;;;;10088282;28;20056;-69
2023/11/20 07:28:58;;;;;;;5.28;0.95;;;13.90;99.90;;;;;;10078114;28;20036;-69
2023/11/20 07:33:49;;;;;;;5.13;1.80;;;13.90;99.90;;;;;;10086307;28;20088;-69
2023/11/20 07:38:39;;;;;;;4.55;1.17;;;13.90;99.90;;;;;;10092286;28;20086;-73
2023/11/20 07:43:30;;;;;;;3.33;1.30;;;13.90;99.90;;;;;;10095511;28;20570;-70
2023/11/20 07:48:20;;;;;;;8.70;1.50;;;13.90;99.90;;;;;;10103725;28;20059;-70
2023/11/20 07:53:11;;;;;;;3.60;1.42;;;13.90;99.90;;;;;;10095098;28;20473;-70
2023/11/20 07:58:02;;;;;;;6.13;1.65;;;14.00;99.90;;;;;;10094849;28;20017;-69
2023/11/20 08:02:52;;;;;;;3.00;1.25;;;14.00;99.90;;;;;;10094492;28;20025;-72
2023/11/20 08:07:44;;;;;;;3.38;1.00;;;13.90;99.90;;;;;;10095003;28;20025;-73
2023/11/20 08:12:36;;;;;;;4.43;1.55;;;14.00;99.90;;;;;;10094297;28;20029;-72
2023/11/20 08:17:27;;;;;;;2.60;1.17;;;14.00;99.90;;;;;;10094771;28;20036;-74
2023/11/20 08:22:17;;;;;;;4.57;1.40;;;14.10;99.90;;;;;;10096353;28;20037;-72
2023/11/20 08:27:08;;;;;;;2.70;0.80;;;14.00;99.90;;;;;;10095047;28;20109;-76
2023/11/20 08:31:59;;;;;;;2.85;1.00;;;13.80;99.90;;;;;;10094252;28;20128;-75
2023/11/20 08:36:49;;;;;;;2.53;0.95;;;13.90;99.90;;;;;;10095020;28;20040;-74
2023/11/20 08:41:41;;;;;;;3.63;1.02;;;13.80;99.90;;;;;;10092937;28;20448;-72
2023/11/20 08:46:31;;;;;;;1.75;1.15;;;13.80;99.90;;;;;;10099719;28;20128;-73
2023/11/20 08:51:22;;;;;;;3.35;1.40;;;13.90;99.90;;;;;;10093834;28;20136;-73
2023/11/20 08:56:13;;;;;;;2.35;1.33;;;13.90;99.90;;;;;;10097648;28;20464;-71
2023/11/20 09:01:04;;;;;;;2.63;0.90;;;13.90;99.90;;;;;;10101971;28;20621;-70
2023/11/20 09:05:55;;;;;;;2.72;0.90;;;13.80;99.90;;;;;;10101668;28;20045;-70
2023/11/20 09:10:45;;;;;;;3.22;0.73;;;13.90;99.90;;;;;;10101647;28;20036;-72
2023/11/20 09:15:36;;;;;;;1.45;0.95;;;13.90;99.90;;;;;;10079780;28;20079;-71
2023/11/20 09:20:26;;;;;;;9.20;1.20;;;13.90;99.90;;;;;;10095882;28;20045;-77
2023/11/20 09:25:17;;;;;;;4.18;1.15;;;14.00;99.90;;;;;;10093559;28;20021;-74
2023/11/20 09:30:12;;;;;;;2.75;1.05;;;14.00;99.90;;;;;;10073032;28;20029;-74
2023/11/20 09:35:03;;;;;;;2.27;0.70;;;14.00;99.90;;;;;;10097672;28;20048;-75
2023/11/20 09:39:54;;;;;;;4.60;1.08;;;13.70;99.90;;;;;;10100833;28;20060;-73
2023/11/20 09:44:48;;;;;;;1.42;0.80;;;13.70;99.90;;;;;;10099780;28;20522;-71
2023/11/20 09:49:42;;;;;;;1.60;0.52;;;13.60;99.90;;;;;;10110818;28;20025;-72
2023/11/20 09:54:38;;;;;;;4.05;0.88;;;13.50;99.90;;;;;;10099675;28;20131;-72
2023/11/20 09:59:28;;;;;;;0.70;0.43;;;13.30;99.90;;;;;;10098963;28;20025;-74
2023/11/20 10:04:23;;;;;;;1.38;0.77;;;13.20;99.90;;;;;;10099024;28;20039;-74
2023/11/20 10:09:18;;;;;;;1.83;0.73;;;13.30;99.90;;;;;;10100845;28;20021;-74
2023/11/20 10:14:09;;;;;;;2.92;0.93;;;13.50;99.90;;;;;;10074914;28;20796;-72
2023/11/20 10:19:02;;;;;;;2.15;0.75;;;13.60;99.90;;;;;;10098092;28;20105;-71
2023/11/20 10:23:57;;;;;;;4.90;1.40;;;13.60;99.90;;;;;;10101855;28;20422;-71
2023/11/20 10:28:47;;;;;;;3.70;1.27;;;13.80;99.90;;;;;;10098231;28;20055;-74
2023/11/20 10:33:38;;;;;;;2.58;1.23;;;13.90;99.90;;;;;;10099364;28;20496;-73
2023/11/20 10:38:29;;;;;;;5.65;2.17;;;13.90;99.90;;;;;;10099456;28;20804;-73
2023/11/20 10:43:20;;;;;;;3.55;1.10;;;13.90;99.90;;;;;;10096983;28;20123;-71
2023/11/20 10:48:12;;;;;;;2.53;0.80;;;13.80;99.90;;;;;;10105239;28;20017;-77
2023/11/20 10:53:06;;;;;;;3.33;1.55;;;13.70;99.90;;;;;;10096679;28;20028;-74
2023/11/20 10:57:59;;;;;;;1.63;0.57;;;13.60;99.90;;;;;;10097547;28;20027;-74
2023/11/20 11:02:51;;;;;;;3.15;0.90;;;13.60;99.90;;;;;;10078360;28;20029;-72
2023/11/20 11:07:43;;;;;;;2.95;1.30;;;13.50;99.90;;;;;;10096591;28;20025;-71
2023/11/20 11:12:37;;;;;;;8.90;2.55;;;13.80;99.90;;;;;;10096188;28;20095;-73
2023/11/20 11:17:32;;;;;;;3.63;1.42;;;13.80;99.90;;;;;;10096028;28;20017;-73
2023/11/20 11:22:35;;;;;;;2.22;1.10;;;13.90;99.90;;;;;;10099365;28;20643;-69
2023/11/20 11:27:52;;;;;;;3.78;1.75;;;13.90;99.90;;;;;;10090966;28;20145;-69
2023/11/20 11:32:56;;;;;;;1.90;1.10;;;14.00;99.90;;;;;;10093109;28;20059;-72
2023/11/20 11:38:16;;;;;;;2.63;0.95;;;14.00;99.90;;;;;;10093060;28;20126;-69
2023/11/20 11:43:20;;;;;;;1.02;0.60;;;14.10;99.90;;;;;;10092080;28;20033;-70
2023/11/20 11:48:11;;;;;;;2.40;1.02;;;14.00;99.90;;;;;;10095595;28;20033;-69
2023/11/20 11:53:03;;;;;;;1.90;0.63;;;14.00;99.90;;;;;;10095293;28;20033;-69
2023/11/20 11:57:58;;;;;;;2.45;0.95;;;14.00;99.90;;;;;;10095286;28;20039;-71
2023/11/20 12:03:08;;;;;;;1.83;0.70;;;14.00;99.90;;;;;;10090862;28;20033;-71
2023/11/20 12:08:02;;;;;;;0.80;0.55;;;14.00;99.90;;;;;;10085721;28;20025;-74
2023/11/20 12:13:02;;;;;;;4.15;0.90;;;14.00;99.90;;;;;;10093822;28;20482;-70
2023/11/20 12:17:55;;;;;;;4.10;1.50;;;13.80;99.90;;;;;;10097419;28;20033;-70
2023/11/20 12:22:49;;;;;;;2.33;0.68;;;13.70;99.90;;;;;;10098386;28;20032;-70
2023/11/20 12:27:40;;;;;;;1.55;0.68;;;13.80;99.90;;;;;;10095123;28;20036;-71
2023/11/20 12:32:31;;;;;;;3.53;1.23;;;13.80;99.90;;;;;;10102317;28;20040;-67
2023/11/20 12:37:22;;;;;;;1.73;0.50;;;13.60;99.90;;;;;;10102849;28;20518;-68
2023/11/20 12:42:17;;;;;;;3.28;0.70;;;13.60;99.90;;;;;;10085602;28;20033;-69
2023/11/20 12:47:08;;;;;;;3.55;0.88;;;13.80;99.90;;;;;;10108327;28;20024;-69
2023/11/20 12:51:58;;;;;;;1.45;0.73;;;13.90;99.90;;;;;;10104646;28;20446;-69
2023/11/20 12:56:50;;;;;;;1.48;0.68;;;14.10;99.90;;;;;;10102393;28;20071;-69
2023/11/20 13:01:40;;;;;;;2.03;0.57;;;14.10;99.90;;;;;;10099123;28;20116;-69
2023/11/20 13:06:35;;;;;;;1.25;0.52;;;14.20;99.90;;;;;;10101992;28;20112;-72
2023/11/20 13:11:26;;;;;;;3.70;1.02;;;14.20;99.90;;;;;;10099109;28;20028;-73
2023/11/20 13:16:19;;;;;;;2.20;0.50;;;14.20;99.90;;;;;;10099588;28;20441;-74
2023/11/20 13:21:22;;;;;;;2.42;1.02;;;14.20;99.90;;;;;;10082738;28;20522;-74
2023/11/20 13:26:13;;;;;;;0.47;0.30;;;14.20;99.90;;;;;;10101494;28;20021;-73
2023/11/20 13:31:06;;;;;;;2.42;0.65;;;14.20;99.90;;;;;;10080493;28;20051;-74
2023/11/20 13:35:58;;;;;;;5.13;0.73;;;14.30;99.90;;;;;;10101796;28;20106;-71
2023/11/20 13:40:50;;;;;;;2.50;0.90;;;14.50;99.90;;;;;;10103484;28;20534;-73
2023/11/20 13:45:41;;;;;;;1.77;0.50;;;14.50;99.90;;;;;;10100244;28;20051;-69
2023/11/20 13:50:32;;;;;;;1.95;0.70;;;14.50;99.90;;;;;;10108938;28;20133;-72
2023/11/20 13:55:23;;;;;;;1.55;0.70;;;14.60;99.90;;;;;;10099840;28;20025;-73
2023/11/20 14:00:19;;;;;;;2.40;0.73;;;14.50;99.90;;;;;;10099602;28;20037;-72
2023/11/20 14:05:10;;;;;;;0.95;0.30;;;14.50;99.90;;;;;;10080850;28;20090;-75
2023/11/20 14:10:01;;;;;;;1.20;0.63;;;14.40;99.90;;;;;;10071745;28;20659;-73
2023/11/20 14:14:51;;;;;;;2.97;0.60;;;14.40;99.90;;;;;;10098975;28;20021;-74
2023/11/20 14:19:42;;;;;;;2.08;0.70;;;14.40;99.90;;;;;;10098367;28;20033;-73
2023/11/20 14:24:33;;;;;;;0.93;0.40;;;14.30;99.90;;;;;;10105047;28;20419;-73
2023/11/20 14:29:24;;;;;;;2.45;1.00;;;14.20;99.90;;;;;;10099074;28;20482;-73
2023/11/20 14:34:14;;;;;;;1.65;0.47;;;14.20;99.90;;;;;;10098211;28;20087;-66
2023/11/20 14:39:05;;;;;;;3.30;0.60;;;14.10;99.90;;;;;;10098550;28;20036;-66
2023/11/20 14:43:56;;;;;;;2.13;0.50;;;13.80;99.90;;;;;;10097191;28;20029;-69
2023/11/20 14:48:47;;;;;;;2.65;1.10;;;13.80;99.90;;;;;;10103459;28;20025;-67
2023/11/20 14:53:39;;;;;;;4.97;0.65;;;13.90;99.90;;;;;;10097556;28;20021;-67
2023/11/20 14:58:35;;;;;;;2.45;0.70;;;13.90;99.90;;;;;;10081257;28;20025;-69
2023/11/20 15:03:27;;;;;;;3.33;0.88;;;13.90;99.90;;;;;;10097923;28;20032;-73
2023/11/20 15:08:18;;;;;;;2.72;1.10;;;13.80;99.90;;;;;;10097193;28;20020;-71
2023/11/20 15:13:09;;;;;;;0.90;0.55;;;13.80;99.90;;;;;;10098816;28;20460;-72
2023/11/20 15:18:00;;;;;;;2.78;0.77;;;13.70;99.90;;;;;;10097534;28;20028;-70
2023/11/20 15:22:51;;;;;;;1.55;0.45;;;13.70;99.90;;;;;;10083275;28;20155;-73
2023/11/20 15:27:42;;;;;;;3.35;0.65;;;13.70;99.90;;;;;;10099362;28;20108;-73
2023/11/20 15:32:34;;;;;;;1.63;0.52;;;13.70;99.90;;;;;;10097011;28;20021;-70
2023/11/20 15:37:25;;;;;;;2.42;0.50;;;13.70;99.90;;;;;;10098401;28;20053;-71
2023/11/20 15:42:16;;;;;;;1.35;0.80;;;13.70;99.90;;;;;;10095642;28;20079;-74
2023/11/20 15:47:08;;;;;;;0.70;0.40;;;13.70;99.90;;;;;;10101254;28;20555;-68
2023/11/20 15:51:59;;;;;;;3.83;0.88;;;13.70;99.90;;;;;;10095213;28;20655;-73
2023/11/20 15:56:52;;;;;;;3.90;0.90;;;13.70;99.90;;;;;;10096546;28;20031;-71
2023/11/20 16:01:47;;;;;;;4.75;1.08;;;13.60;99.90;;;;;;10097022;28;20021;-69
2023/11/20 16:06:38;;;;;;;4.07;2.17;;;13.60;99.90;;;;;;10092790;28;20025;-70
2023/11/20 16:11:29;;;;;;;3.95;1.15;;;13.50;99.90;;;;;;10092161;28;20561;-69
2023/11/20 16:16:20;;;;;;;3.30;1.65;;;13.50;99.90;;;;;;10092223;28;20044;-70
2023/11/20 16:21:11;;;;;;;2.97;1.17;;;13.60;99.90;;;;;;10074995;28;20048;-75
2023/11/20 16:26:03;;;;;;;2.92;1.13;;;13.60;99.90;;;;;;10099411;28;20052;-69
2023/11/20 16:30:54;;;;;;;2.25;1.10;;;13.50;99.90;;;;;;10093435;28;20039;-73
2023/11/20 16:35:45;;;;;;;5.97;1.55;;;13.50;99.90;;;;;;10092417;28;20502;-71
2023/11/20 16:40:35;;;;;;;2.05;1.20;;;13.50;99.90;;;;;;10094668;28;20048;-70
2023/11/20 16:45:26;;;;;;;2.53;0.80;;;13.50;99.90;;;;;;10094778;28;20491;-71
2023/11/20 16:50:17;;;;;;;3.17;0.65;;;13.50;99.90;;;;;;10103009;28;20029;-72
2023/11/20 16:55:08;;;;;;;1.58;0.90;;;13.50;99.90;;;;;;10094292;28;20029;-70
2023/11/20 17:00:06;;;;;;;2.47;1.25;;;13.40;99.90;;;;;;10072764;28;20017;-73
2023/11/20 17:04:57;;;;;;;3.15;1.30;;;13.50;99.90;;;;;;10076363;28;20410;-69
2023/11/20 17:09:48;;;;;;;2.95;1.17;;;13.50;99.90;;;;;;10076430;28;20029;-70
2023/11/20 17:14:42;;;;;;;2.53;0.88;;;13.40;99.90;;;;;;10093609;28;20024;-68
2023/11/20 17:19:33;;;;;;;1.70;0.80;;;13.30;99.90;;;;;;10101449;28;20102;-71
2023/11/20 17:24:23;;;;;;;2.40;1.05;;;13.30;99.90;;;;;;10105800;28;20090;-69
2023/11/20 17:29:14;;;;;;;2.22;0.80;;;13.20;99.90;;;;;;10099613;28;20087;-71
2023/11/20 17:34:04;;;;;;;1.77;0.98;;;13.30;99.90;;;;;;10097586;28;20049;-69
2023/11/20 17:38:55;;;;;;;2.25;1.52;;;13.30;99.90;;;;;;10087370;28;20168;-70
2023/11/20 17:43:46;;;;;;;2.38;0.90;;;13.30;99.90;;;;;;10095961;28;20041;-71
2023/11/20 17:48:37;;;;;;;3.05;0.93;;;13.30;99.90;;;;;;10084281;28;20028;-69
2023/11/20 17:53:28;;;;;;;2.65;1.20;;;13.20;99.90;;;;;;10101078;28;20041;-74
2023/11/20 17:58:22;;;;;;;2.83;1.10;;;13.30;99.90;;;;;;10100641;28;20202;-78
2023/11/20 18:03:13;;;;;;;2.97;0.90;;;13.20;99.90;;;;;;10081416;28;20057;-71
2023/11/20 18:08:04;;;;;;;2.30;1.30;;;13.30;99.90;;;;;;10095542;28;20372;-72
2023/11/20 18:12:55;;;;;;;4.45;1.10;;;13.30;99.90;;;;;;10101562;28;20392;-71
2023/11/20 18:17:46;;;;;;;3.28;1.45;;;13.30;99.90;;;;;;10102692;28;20025;-73
2023/11/20 18:22:38;;;;;;;1.98;0.90;;;13.20;99.90;;;;;;10099081;28;20059;-71
2023/11/20 18:27:29;;;;;;;4.03;1.30;;;13.10;99.90;;;;;;10098728;28;20076;-69
2023/11/20 18:32:22;;;;;;;2.90;1.58;;;13.20;99.90;;;;;;10098222;28;20120;-69
2023/11/20 18:37:15;;;;;;;3.33;1.42;;;13.20;99.90;;;;;;10099912;28;20155;-71
2023/11/20 18:42:05;;;;;;;7.10;1.60;;;13.20;99.90;;;;;;10088408;28;20033;-68
2023/11/20 18:46:57;;;;;;;5.43;1.45;;;13.10;99.90;;;;;;10086444;28;20465;-73
2023/11/20 18:51:48;;;;;;;6.07;1.38;;;13.10;99.90;;;;;;10069462;28;20616;-71
2023/11/20 18:56:39;;;;;;;3.95;1.40;;;13.10;99.90;;;;;;10092097;28;20055;-70
2023/11/20 19:01:29;;;;;;;5.70;2.35;;;13.10;99.90;;;;;;10096821;28;20045;-69
2023/11/20 19:06:21;;;;;;;2.80;1.90;;;13.10;99.90;;;;;;10096921;28;20040;-67
2023/11/20 19:11:15;;;;;;;1.85;1.23;;;13.00;99.90;;;;;;10097222;28;20044;-67
2023/11/20 19:16:08;;;;;;;5.05;2.80;;;13.00;99.90;;;;;;10095363;28;20578;-69
2023/11/20 19:20:58;;;;;;;5.57;1.60;;;13.00;99.90;;;;;;10095138;28;20048;-68
2023/11/20 19:25:49;;;;;;;2.92;1.20;;;13.00;99.90;;;;;;10101068;28;20029;-72
2023/11/20 19:30:41;;;;;;;3.05;1.52;;;13.00;99.90;;;;;;10096329;28;20561;-70
2023/11/20 19:35:31;;;;;;;5.78;1.80;;;13.00;99.90;;;;;;10095724;28;20044;-69
2023/11/20 19:40:23;;;;;;;7.20;1.80;;;13.00;99.90;;;;;;10095194;28;20040;-71
2023/11/20 19:45:18;;;;;;;6.57;2.42;;;12.90;99.90;;;;;;10091817;28;20079;-73
2023/11/20 19:50:09;;;;;;;5.07;1.55;;;12.80;99.90;;;;;;10099919;28;20021;-71
2023/11/20 19:55:01;;;;;;;1.75;1.42;;;12.70;99.90;;;;;;10090505;28;20040;-70
2023/11/20 19:59:52;;;;;;;4.07;1.30;;;12.70;99.90;;;;;;10073479;28;20048;-70
2023/11/20 20:04:43;;;;;;;4.30;1.40;;;12.70;99.90;;;;;;10088396;28;20021;-71
2023/11/20 20:09:35;;;;;;;2.55;1.42;;;12.70;99.90;;;;;;10092539;28;20025;-70
2023/11/20 20:14:26;;;;;;;4.88;1.42;;;12.70;99.90;;;;;;10091125;28;20048;-68
2023/11/20 20:19:17;;;;;;;3.58;1.50;;;12.70;99.90;;;;;;10078553;28;20040;-68
2023/11/20 20:24:08;;;;;;;6.47;1.38;;;12.70;99.90;;;;;;10092170;28;20703;-68
2023/11/20 20:29:02;;;;;;;4.10;1.35;;;12.70;99.90;;;;;;10076169;28;20040;-68
2023/11/20 20:33:53;;;;;;;5.82;1.58;;;12.70;99.90;;;;;;10091457;28;20041;-69
2023/11/20 20:38:45;;;;;;;3.38;1.27;;;12.70;99.90;;;;;;10067167;28;20068;-68
2023/11/20 20:43:37;;;;;;;3.55;1.95;;;12.60;99.90;;;;;;10084761;28;20024;-66
2023/11/20 20:48:27;;;;;;;5.30;1.02;;;12.60;99.90;;;;;;10095939;28;20616;-71
2023/11/20 20:53:18;;;;;;;3.45;1.45;;;12.60;99.90;;;;;;10083349;28;20112;-70
2023/11/20 20:58:10;;;;;;;8.82;2.55;;;12.60;99.90;;;;;;10072269;28;20135;-69
2023/11/20 21:03:02;;;;;;;4.43;1.80;;;12.70;99.90;;;;;;10094303;28;20033;-69
2023/11/20 21:07:53;;;;;;;4.30;1.73;;;12.70;99.90;;;;;;10098117;28;20144;-68
2023/11/20 21:12:43;;;;;;;4.35;2.13;;;12.50;99.90;;;;;;10098899;28;20573;-69
2023/11/20 21:17:34;;;;;;;4.07;1.60;;;12.60;99.90;;;;;;10099719;28;20033;-71
2023/11/20 21:22:25;;;;;;;4.78;2.40;;;12.70;99.90;;;;;;10103656;28;20028;-72
2023/11/20 21:27:15;;;;;;;5.78;2.10;;;12.60;99.90;;;;;;10098080;28;20021;-70
2023/11/20 21:32:07;;;;;;;4.43;2.05;;;12.50;99.90;;;;;;10098047;28;20057;-69
2023/11/20 21:36:58;;;;;;;6.00;2.63;;;12.60;99.90;;;;;;10082614;28;20478;-67
2023/11/20 21:41:49;;;;;;;4.80;1.73;;;12.60;99.90;;;;;;10100071;28;20036;-68
2023/11/20 21:46:40;;;;;;;4.72;2.53;;;12.50;99.90;;;;;;10101838;28;20120;-68
2023/11/20 21:51:30;;;;;;;5.55;1.00;;;12.50;99.90;;;;;;10101995;28;20116;-69
2023/11/20 21:56:21;;;;;;;2.20;1.20;;;12.40;99.90;;;;;;10100297;28;20497;-68
2023/11/20 22:01:12;;;;;;;1.60;0.95;;;12.40;99.90;;;;;;10099437;28;20041;-69
2023/11/20 22:06:03;;;;;;;2.13;1.02;;;12.40;99.90;;;;;;10099752;28;20165;-71
2023/11/20 22:10:53;;;;;;;5.38;1.20;;;12.40;99.90;;;;;;10098790;28;20029;-69
2023/11/20 22:15:44;;;;;;;7.18;1.45;;;12.40;99.90;;;;;;10095781;28;20029;-71
2023/11/20 22:20:34;;;;;;;2.15;1.40;;;12.30;99.90;;;;;;10098814;28;20036;-70
2023/11/20 22:25:25;;;;;;;1.75;0.93;;;12.30;99.90;;;;;;10105298;28;20032;-71
2023/11/20 22:30:18;;;;;;;3.35;1.02;;;12.30;99.90;;;;;;10097624;28;20036;-71
2023/11/20 22:35:09;;;;;;;1.55;1.00;;;12.40;99.90;;;;;;10098982;28;20055;-68
2023/11/20 22:40:00;;;;;;;2.95;1.10;;;12.30;99.90;;;;;;10099887;28;20025;-68
2023/11/20 22:44:52;;;;;;;2.80;1.20;;;12.30;99.90;;;;;;10097347;28;20033;-68
2023/11/20 22:49:42;;;;;;;1.08;0.73;;;12.30;99.90;;;;;;10106485;28;20021;-69
2023/11/20 22:54:33;;;;;;;5.18;1.42;;;12.30;99.90;;;;;;10097756;28;20544;-68
2023/11/20 22:59:24;;;;;;;1.33;0.90;;;12.40;99.90;;;;;;10095876;28;20047;-67
2023/11/20 23:04:15;;;;;;;1.15;0.85;;;12.30;99.90;;;;;;10090671;28;20037;-79
2023/11/20 23:09:06;;;;;;;1.95;1.13;;;12.20;99.90;;;;;;10096259;28;20021;-70
2023/11/20 23:13:57;;;;;;;2.75;0.93;;;12.20;99.90;;;;;;10075898;28;20508;-69
2023/11/20 23:18:48;;;;;;;2.50;1.15;;;12.30;99.90;;;;;;10075441;28;20103;-77
2023/11/20 23:23:38;;;;;;;1.48;0.88;;;12.20;99.90;;;;;;10085940;28;20629;-78
2023/11/20 23:28:29;;;;;;;2.92;1.27;;;12.30;99.90;;;;;;10086669;28;20111;-68
2023/11/20 23:33:20;;;;;;;3.78;1.10;;;12.20;99.90;;;;;;10089147;28;20041;-70
2023/11/20 23:38:10;;;;;;;1.58;1.30;;;12.10;99.90;;;;;;10068268;28;20017;-69
2023/11/20 23:43:02;;;;;;;1.85;0.98;;;12.10;99.90;;;;;;10078706;28;20049;-67
2023/11/20 23:47:54;;;;;;;1.52;1.10;;;12.20;99.90;;;;;;10087945;28;20021;-73
2023/11/20 23:52:45;;;;;;;3.00;1.20;;;12.10;99.90;;;;;;10073599;28;20032;-71
2023/11/20 23:57:36;;;;;;;2.28;1.33;;;12.20;99.90;;;;;;10083803;28;20120;-77
